Terminal Aerodrome Forecast
Issued by NWS Goodland, KS

Home | Current Version | Previous Version | Text Only | Print | Product List | Glossary On
Versions: 1 2 3 4 5 6 7 8 9 10 11 12 13 14
670
FTUS43 KGLD 232321
TAFGLD
TAF
KGLD 232321Z 2400/2424 13008KT P6SM SKC
     FM240300 16007KT P6SM SKC
     FM240600 19010KT P6SM FEW250
     FM241800 18016G24KT P6SM FEW250=

USA.gov is the U.S. government's official web portal to all federal, state and local government web resources and services.